| Record Date MM/DD/YYYY | Record Julian Date NNN day of the year | Air Temperature Max (Degrees Fahrenheit F) | Time Max Air Temperature HH:MM:SS This is the time of max air temperature standard time. | Air Temperature Min (Degrees Fahrenheit F) | Time Min Air Temperature HH:MM:SS This is the time of min air temperature standard time. | Air Temperature Observed (Degrees Fahrenheit F) This is an instantaneous reading for air temperature at 7:00:00 standard time. | Relative Humidity Max (Percent) | Time Max Relative Humidity HH:MM:SS This is the time of max relative humidity standard time. | Relative Humidity Min (Percent) | Time Min Relative Humidity HH:MM:SS This is the time of min relative humidity standard time. | Relative Humidity Observed (Percent) This is an instantaneous reading at 7:00:00 standard time. | Precipitation (Inches n.nn) total rain fall that occurred for the day. | Pan Evaporation (Inches n.nn) total evaporation that occured for the day. | Wind Run (Miles) Wind travel for the day. | Wind Speed (Miles Per Hour) Resultant / Average speed for the day. | Wind Direction (Degrees) Resultant Direction for the day | Solar Radiation (Langley's) that occurred for the day. | Soil Temperature Max at 2 inch depth (Degrees Fahrenheit F) that occurred during the day. | Time Max Soil temperature at 2 inches HH:MM:SS This is the time of max 2 inch soil temperature standard time. | Soil Temperature Min at 2 inch depth (Degrees Fahrenheit F) that occurred during the day. | Time Min Soil temperature at 2 inches HH:MM:SS This is the time of min 2 inch soil temperature standard time. | Soil Temperature Observed at 2 inch depth (Degrees Fahrenheit F) This is an instantaneous reading 2 inch soil temperature at 7:00:00 standard time. | Soil Temperature Max at 4 inch depth (Degrees Fahrenheit F) that occurred during the day. | Time Max Soil temperature at 4 inches HH:MM:SS This is the time of max 4 inch soil temperature standard time. | Soil Temperature Min at 4 inch depth (Degrees Fahrenheit F) that occurred during the day. | Time Min Soil temperature at 4 inches HH:MM:SS This is the time of min 4 inch soil temperature standard time. | Soil Temperature Observed at 4 inch depth (Degrees Fahrenheit F) This is an instantaneous reading 4 inch soil temperature at 7:00:00 standard time. | DD50 Degree Days 50 Fahrenheit. | Adjusted DD50 Degree Days 50 Fahrenheit adjusted for latitude. | DD60 Degree Days 60 Fahrenheit. |
|---|---|---|---|---|---|---|---|---|---|---|---|---|---|---|---|---|---|---|---|---|---|---|---|---|---|---|---|---|---|---|
| 08/02/2026 | 214 | 81 | 14:11:01 | 67 | 1:08:01 | 72 | 97 | 23:30:05 | 72 | 14:08:01 | 92 | 0 | 69 | 2.9 | 341 | 262 | 88 | 15:44:01 | 78 | 0:00:00 | 80 | 86 | 16:42:02 | 81 | 23:59:04 | 82 | 24 | 25.18 | 14 | |
| 08/03/2026 | 215 | 89 | 15:32:03 | 65 | 5:22:05 | 72 | 99 | 5:49:02 | 52 | 15:30:04 | 97 | 0 | 65 | 2.7 | 6 | 542 | 97 | 13:11:01 | 75 | 5:48:00 | 77 | 92 | 16:26:01 | 78 | 6:38:01 | 78 | 27 | 27.15 | 17 | |
| 08/04/2026 | 216 | 91 | 13:48:05 | 66 | 5:10:03 | 75 | 97 | 5:42:01 | 42 | 13:45:01 | 87 | 0 | 46 | 1.9 | 358 | 585 | 100 | 14:21:00 | 77 | 5:49:02 | 78 | 93 | 16:30:01 | 80 | 6:48:00 | 80 | 28.5 | 27.12 | 18.5 | |
| 08/05/2026 | 217 | 98 | 13:28:01 | 64 | 5:09:00 | 74 | 97 | 4:30:01 | 40 | 13:31:03 | 85 | 0 | 33 | 1.4 | 24 | 568 | 101 | 13:34:00 | 77 | 5:51:04 | 79 | 94 | 17:02:02 | 81 | 6:47:03 | 81 | 31 | 27.08 | 21 | |
| 08/06/2026 | 218 | 101 | 14:50:00 | 66 | 5:15:00 | 76 | 96 | 5:51:03 | 36 | 15:32:01 | 85 | 0 | 38 | 1.6 | 138 | 643 | 105 | 15:05:02 | 79 | 5:51:03 | 80 | 98 | 16:22:03 | 82 | 6:48:00 | 82 | 33.5 | 27.05 | 23.5 | |
| 08/07/2026 | 219 | 98 | 15:53:03 | 71 | 4:29:02 | 78 | 97 | 5:05:04 | 49 | 15:57:05 | 91 | 0 | 71 | 2.9 | 161 | 104 | 14:50:02 | 82 | 6:00:02 | 83 | 98 | 16:44:01 | 85 | 7:02:01 | 85 | 34.5 | 27.02 | 24.5 | ||
| 08/08/2026 | 220 | 94 | 10:07:02 | 73 | 4:53:03 | 79 | 96 | 2:13:05 | 59 | 14:53:01 | 89 | 0 | 74 | 3.1 | 134 | 554 | 102 | 15:07:00 | 84 | 5:51:03 | 85 | 96 | 16:00:01 | 86 | 7:08:03 | 86 | 33.5 | 26.98 | 23.5 | |
| 08/09/2026 | 221 | 98 | 14:45:00 | 72 | 5:11:03 | 77 | 97 | 3:39:01 | 46 | 14:34:05 | 91 | 0 | 58 | 2.4 | 158 | 546 | 103 | 15:23:04 | 83 | 5:58:05 | 84 | 97 | 16:28:05 | 85 | 6:57:01 | 85 | 35 | 26.95 | 25 | |
| 08/10/2026 | 222 | 100 | 13:58:05 | 73 | 4:08:05 | 80 | 96 | 4:57:04 | 46 | 13:56:00 | 87 | 0.05 | 54 | 2.3 | 163 | 540 | 105 | 14:47:01 | 84 | 5:57:04 | 85 | 99 | 15:58:05 | 86 | 6:59:03 | 86 | 36.5 | 26.91 | 26.5 | |
| 08/11/2026 | 223 | 94 | 11:39:05 | 73 | 0:34:00 | 79 | 97 | 5:34:01 | 57 | 16:38:04 | 90 | 0 | 74 | 3.1 | 173 | 556 | 101 | 12:45:03 | 82 | 5:50:05 | 83 | 96 | 17:02:04 | 85 | 6:50:05 | 85 | 33.5 | 26.88 | 23.5 | |
| 08/12/2026 | 224 | 96 | 16:00:04 | 74 | 4:33:04 | 81 | 94 | 4:54:03 | 53 | 12:35:03 | 86 | 0 | 77 | 3.2 | 185 | 591 | 104 | 14:48:03 | 84 | 5:37:00 | 85 | 98 | 16:49:02 | 86 | 6:50:01 | 86 | 35 | 26.84 | 25 | |
| 08/13/2026 | 225 | 99 | 13:50:02 | 75 | 4:46:05 | 80 | 93 | 4:50:05 | 52 | 13:52:00 | 86 | 0 | 68 | 2.8 | 171 | 504 | 103 | 14:01:01 | 85 | 5:54:04 | 86 | 97 | 15:03:05 | 87 | 6:58:01 | 87 | 37 | 26.81 | 27 | |
| 08/14/2026 | 226 | 100 | 15:07:04 | 73 | 5:15:05 | 80 | 95 | 5:41:05 | 45 | 15:03:01 | 88 | 0 | 58 | 2.4 | 181 | 597 | 105 | 15:21:05 | 85 | 5:55:05 | 85 | 99 | 16:34:05 | 87 | 7:01:05 | 87 | 36.5 | 26.77 | 26.5 | |
| 08/15/2026 | 227 | 100 | 13:52:04 | 72 | 5:46:02 | 79 | 92 | 5:57:01 | 40 | 14:29:05 | 82 | 0 | 48 | 2.0 | 178 | 560 | 105 | 14:34:03 | 84 | 6:07:00 | 85 | 99 | 16:09:02 | 87 | 7:03:00 | 87 | 36 | 26.74 | 26 | |
| 08/16/2026 | 228 | 102 | 15:26:03 | 75 | 5:39:01 | 83 | 93 | 3:04:01 | 38 | 15:00:02 | 82 | 0 | 47 | 2.0 | 205 | 539 | 105 | 15:44:02 | 86 | 6:11:05 | 87 | 99 | 16:40:05 | 88 | 6:52:04 | 88 | 38.5 | 26.7 | 28.5 | |
| 08/17/2026 | 229 | 100 | 13:56:00 | 74 | 23:59:03 | 82 | 92 | 0:00:00 | 45 | 15:12:01 | 81 | 0 | 73 | 3.0 | 286 | 568 | 106 | 14:04:01 | 87 | 6:08:05 | 88 | 100 | 15:18:01 | 89 | 7:00:02 | 89 | 37 | 26.67 | 27 | |
| 08/18/2026 | 230 | 101 | 14:02:02 | 73 | 3:58:00 | 80 | 96 | 4:07:01 | 45 | 14:01:03 | 85 | 0 | 49 | 2.0 | 81 | 478 | 103 | 15:14:01 | 86 | 6:14:04 | 87 | 98 | 15:51:03 | 88 | 7:09:04 | 88 | 37 | 26.63 | 27 | |
| 08/19/2026 | 231 | 103 | 14:20:04 | 73 | 3:48:02 | 80 | 96 | 4:48:03 | 40 | 13:51:02 | 86 | 0 | 64 | 2.7 | 158 | 546 | 105 | 14:58:04 | 86 | 6:03:05 | 86 | 99 | 16:13:05 | 88 | 7:11:00 | 88 | 38 | 26.59 | 28 | |
| 08/20/2026 | 232 | 99 | 14:02:03 | 74 | 4:33:03 | 81 | 95 | 23:50:00 | 45 | 15:52:00 | 85 | 0.11 | 68 | 2.8 | 226 | 513 | 103 | 13:39:04 | 86 | 6:12:03 | 87 | 98 | 14:38:05 | 88 | 7:07:02 | 88 | 36.5 | 26.56 | 26.5 | |
| 08/21/2026 | 233 | 95 | 14:29:01 | 69 | 0:32:00 | 75 | 97 | 6:14:01 | 47 | 14:57:01 | 91 | 0.83 | 67 | 2.8 | 15 | 563 | 99 | 12:41:05 | 80 | 0:00:00 | 81 | 94 | 14:15:03 | 84 | 7:02:00 | 84 | 32 | 26.52 | 22 | |
| 08/22/2026 | 234 | 101 | 13:25:03 | 68 | 5:30:01 | 75 | 96 | 5:40:05 | 40 | 14:25:05 | 90 | 0.33 | 63 | 2.6 | 62 | 501 | 101 | 14:23:05 | 77 | 5:44:04 | 78 | 95 | 15:41:00 | 81 | 6:42:03 | 81 | 34.5 | 26.49 | 24.5 | |
| 08/23/2026 | 235 | 91 | 14:55:02 | 70 | 4:21:01 | 76 | 98 | 5:00:05 | 51 | 15:11:02 | 89 | 0 | 62 | 2.6 | 32 | 565 | 97 | 13:25:05 | 77 | 6:04:02 | 79 | 92 | 14:48:01 | 80 | 6:52:04 | 80 | 30.5 | 26.45 | 20.5 | |
| 08/24/2026 | 236 | 90 | 14:44:05 | 73 | 23:49:02 | 75 | 96 | 23:58:02 | 58 | 9:45:02 | 85 | 0 | 64 | 2.7 | 198 | 418 | 93 | 15:50:01 | 77 | 4:31:00 | 78 | 90 | 16:43:05 | 80 | 6:46:04 | 80 | 31.5 | 26.41 | 21.5 | |
| 08/25/2026 | 237 | 94 | 17:04:01 | 73 | 0:19:00 | 79 | 98 | 5:30:01 | 57 | 14:10:02 | 92 | 0 | 43 | 1.8 | 177 | 447 | 99 | 15:13:02 | 79 | 5:36:03 | 81 | 93 | 16:22:05 | 81 | 6:43:00 | 81 | 33.5 | 26.38 | 23.5 | |
| 08/26/2026 | 238 | 93 | 11:10:02 | 73 | 23:59:03 | 79 | 95 | 6:05:02 | 56 | 11:12:00 | 90 | 0 | 73 | 3.0 | 143 | 375 | 98 | 14:49:00 | 81 | 5:56:03 | 82 | 93 | 15:24:04 | 83 | 6:50:02 | 83 | 33 | 26.34 | 23 | |
| 08/27/2026 | 239 | 95 | 14:22:03 | 72 | 4:24:05 | 73 | 97 | 6:34:00 | 47 | 15:28:04 | 97 | 0 | 59 | 2.5 | 12 | 479 | 101 | 14:38:05 | 80 | 5:36:01 | 81 | 95 | 16:08:04 | 83 | 6:58:01 | 83 | 33.5 | 26.3 | 23.5 | |
| 08/28/2026 | 240 | 92 | 14:03:03 | 69 | 22:31:05 | 77 | 84 | 6:03:05 | 38 | 15:44:04 | 75 | 0 | 101 | 4.2 | 29 | 555 | 100 | 14:17:00 | 80 | 6:12:01 | 81 | 95 | 15:11:02 | 83 | 7:10:02 | 83 | 30.5 | 26.27 | 20.5 | |
| 08/29/2026 | 241 | 95 | 13:02:01 | 64 | 5:14:02 | 71 | 92 | 5:37:02 | 29 | 15:13:00 | 82 | 0 | 53 | 2.2 | 15 | 594 | 101 | 14:45:01 | 77 | 6:17:00 | 78 | 95 | 16:06:05 | 81 | 7:00:05 | 81 | 29.5 | 26.23 | 19.5 | |
| 08/30/2026 | 242 | 96 | 14:59:02 | 65 | 0:00:01 | 77 | 94 | 5:56:03 | 48 | 15:02:04 | 84 | 0 | 57 | 2.4 | 138 | 443 | 99 | 15:19:00 | 79 | 6:05:01 | 80 | 93 | 15:59:00 | 82 | 7:00:01 | 82 | 30.5 | 26.19 | 20.5 | |
| 08/31/2026 | 243 | 98 | 15:08:01 | 71 | 4:51:05 | 80 | 93 | 4:58:04 | 43 | 16:32:01 | 84 | 0 | 38 | 1.6 | 136 | 456 | 100 | 15:34:01 | 81 | 6:04:02 | 82 | 95 | 16:48:05 | 83 | 6:49:04 | 83 | 34.5 | 26.16 | 24.5 | |
| Average | 96.13 | 70.67 | 77.5 | 95.17 | 47.2 | 87.13 | 0.04 | 60.47 | 520.28 | 101.1 | 81.27 | 82.37 | 95.53 | 83.93 | 83.97 | 33.4 | 26.61 | 23.4 | ||||||||||||
| Total | 1.32 | 1002 | 798.37 | 702 |